sensor_id;sensor_type;location;lat;lon;timestamp;P1;durP1;ratioP1;P2;durP2;ratioP2
50483;SDS011;36409;52.168;20.878;2022-10-03T00:01:44;9.53;;;4.12;;
50483;SDS011;36409;52.168;20.878;2022-10-03T00:04:38;10.13;;;4.93;;
50483;SDS011;36409;52.168;20.878;2022-10-03T00:07:29;11.17;;;4.80;;
50483;SDS011;36409;52.168;20.878;2022-10-03T00:10:22;16.37;;;5.27;;
50483;SDS011;36409;52.168;20.878;2022-10-03T00:13:05;10.57;;;5.17;;
50483;SDS011;36409;52.168;20.878;2022-10-03T00:15:41;13.27;;;6.43;;
50483;SDS011;36409;52.168;20.878;2022-10-03T00:18:22;16.17;;;6.43;;
50483;SDS011;36409;52.168;20.878;2022-10-03T00:21:05;15.10;;;6.80;;
50483;SDS011;36409;52.168;20.878;2022-10-03T00:23:46;10.60;;;5.70;;
50483;SDS011;36409;52.168;20.878;2022-10-03T00:26:25;15.17;;;6.20;;
50483;SDS011;36409;52.168;20.878;2022-10-03T00:29:11;12.50;;;6.57;;
50483;SDS011;36409;52.168;20.878;2022-10-03T00:31:50;9.17;;;5.93;;
50483;SDS011;36409;52.168;20.878;2022-10-03T00:34:28;14.47;;;6.70;;
50483;SDS011;36409;52.168;20.878;2022-10-03T00:37:15;15.27;;;7.70;;
50483;SDS011;36409;52.168;20.878;2022-10-03T00:39:54;12.93;;;8.07;;
50483;SDS011;36409;52.168;20.878;2022-10-03T00:45:56;13.53;;;8.07;;
50483;SDS011;36409;52.168;20.878;2022-10-03T00:48:45;12.77;;;6.00;;
50483;SDS011;36409;52.168;20.878;2022-10-03T00:51:39;14.53;;;6.90;;
50483;SDS011;36409;52.168;20.878;2022-10-03T00:54:25;13.05;;;5.35;;
50483;SDS011;36409;52.168;20.878;2022-10-03T01:00:11;9.77;;;4.97;;
50483;SDS011;36409;52.168;20.878;2022-10-03T01:02:53;10.03;;;4.85;;
50483;SDS011;36409;52.168;20.878;2022-10-03T01:05:47;10.13;;;4.80;;
50483;SDS011;36409;52.168;20.878;2022-10-03T01:08:35;14.43;;;5.07;;
50483;SDS011;36409;52.168;20.878;2022-10-03T01:11:27;8.90;;;4.50;;
50483;SDS011;36409;52.168;20.878;2022-10-03T01:14:19;10.13;;;4.13;;
50483;SDS011;36409;52.168;20.878;2022-10-03T01:17:07;11.33;;;4.47;;
50483;SDS011;36409;52.168;20.878;2022-10-03T01:19:52;12.60;;;4.47;;
50483;SDS011;36409;52.168;20.878;2022-10-03T01:22:44;13.07;;;5.47;;
50483;SDS011;36409;52.168;20.878;2022-10-03T01:25:37;9.33;;;4.70;;
50483;SDS011;36409;52.168;20.878;2022-10-03T01:31:33;10.27;;;4.37;;
50483;SDS011;36409;52.168;20.878;2022-10-03T01:34:12;11.17;;;4.57;;
50483;SDS011;36409;52.168;20.878;2022-10-03T01:36:52;13.13;;;5.23;;
50483;SDS011;36409;52.168;20.878;2022-10-03T01:39:33;6.87;;;4.00;;
50483;SDS011;36409;52.168;20.878;2022-10-03T01:42:07;14.47;;;4.80;;
50483;SDS011;36409;52.168;20.878;2022-10-03T01:44:44;7.57;;;4.00;;
50483;SDS011;36409;52.168;20.878;2022-10-03T01:47:28;9.87;;;4.47;;
50483;SDS011;36409;52.168;20.878;2022-10-03T01:50:06;11.13;;;4.30;;
50483;SDS011;36409;52.168;20.878;2022-10-03T01:52:47;9.60;;;4.53;;
50483;SDS011;36409;52.168;20.878;2022-10-03T01:55:22;10.07;;;4.70;;
50483;SDS011;36409;52.168;20.878;2022-10-03T01:57:57;14.07;;;5.17;;
50483;SDS011;36409;52.168;20.878;2022-10-03T02:00:33;11.38;;;5.47;;
50483;SDS011;36409;52.168;20.878;2022-10-03T02:03:10;8.73;;;5.50;;
50483;SDS011;36409;52.168;20.878;2022-10-03T02:05:47;14.40;;;5.30;;
50483;SDS011;36409;52.168;20.878;2022-10-03T02:08:32;12.47;;;5.03;;
50483;SDS011;36409;52.168;20.878;2022-10-03T02:11:22;13.97;;;4.33;;
50483;SDS011;36409;52.168;20.878;2022-10-03T02:13:58;14.93;;;5.43;;
50483;SDS011;36409;52.168;20.878;2022-10-03T02:19:13;9.10;;;4.33;;
50483;SDS011;36409;52.168;20.878;2022-10-03T02:21:48;10.70;;;4.87;;
50483;SDS011;36409;52.168;20.878;2022-10-03T02:24:23;11.60;;;4.37;;
50483;SDS011;36409;52.168;20.878;2022-10-03T02:30:19;9.77;;;3.90;;
50483;SDS011;36409;52.168;20.878;2022-10-03T02:36:16;13.15;;;4.35;;
50483;SDS011;36409;52.168;20.878;2022-10-03T02:39:19;17.80;;;6.40;;
50483;SDS011;36409;52.168;20.878;2022-10-03T02:42:23;14.20;;;9.07;;
50483;SDS011;36409;52.168;20.878;2022-10-03T02:48:37;13.93;;;7.00;;
50483;SDS011;36409;52.168;20.878;2022-10-03T02:57:26;9.90;;;4.30;;
50483;SDS011;36409;52.168;20.878;2022-10-03T03:00:17;10.67;;;4.43;;
50483;SDS011;36409;52.168;20.878;2022-10-03T03:12:09;11.00;;;4.20;;
50483;SDS011;36409;52.168;20.878;2022-10-03T03:15:04;10.40;;;4.10;;
50483;SDS011;36409;52.168;20.878;2022-10-03T03:17:53;9.50;;;4.70;;
50483;SDS011;36409;52.168;20.878;2022-10-03T03:20:33;6.90;;;4.27;;
50483;SDS011;36409;52.168;20.878;2022-10-03T03:23:21;12.93;;;4.27;;
50483;SDS011;36409;52.168;20.878;2022-10-03T03:26:09;10.80;;;4.27;;
50483;SDS011;36409;52.168;20.878;2022-10-03T03:28:51;9.83;;;3.80;;
50483;SDS011;36409;52.168;20.878;2022-10-03T03:31:30;14.20;;;4.53;;
50483;SDS011;36409;52.168;20.878;2022-10-03T03:34:11;12.67;;;4.00;;
50483;SDS011;36409;52.168;20.878;2022-10-03T03:36:48;10.97;;;4.23;;
50483;SDS011;36409;52.168;20.878;2022-10-03T03:39:25;9.30;;;4.43;;
50483;SDS011;36409;52.168;20.878;2022-10-03T03:42:23;13.90;;;5.50;;
50483;SDS011;36409;52.168;20.878;2022-10-03T03:45:19;13.10;;;5.03;;
50483;SDS011;36409;52.168;20.878;2022-10-03T03:48:05;7.63;;;3.53;;
50483;SDS011;36409;52.168;20.878;2022-10-03T03:50:53;8.07;;;4.27;;
50483;SDS011;36409;52.168;20.878;2022-10-03T03:53:39;13.33;;;4.53;;
50483;SDS011;36409;52.168;20.878;2022-10-03T03:56:28;15.83;;;4.53;;
50483;SDS011;36409;52.168;20.878;2022-10-03T03:59:19;8.43;;;3.80;;
50483;SDS011;36409;52.168;20.878;2022-10-03T04:02:09;10.67;;;3.87;;
50483;SDS011;36409;52.168;20.878;2022-10-03T04:04:59;7.27;;;3.60;;
50483;SDS011;36409;52.168;20.878;2022-10-03T04:07:43;13.07;;;4.87;;
50483;SDS011;36409;52.168;20.878;2022-10-03T04:10:25;9.80;;;4.20;;
50483;SDS011;36409;52.168;20.878;2022-10-03T04:13:27;15.33;;;4.67;;
50483;SDS011;36409;52.168;20.878;2022-10-03T04:16:12;8.77;;;4.47;;
50483;SDS011;36409;52.168;20.878;2022-10-03T04:19:10;11.33;;;4.13;;
50483;SDS011;36409;52.168;20.878;2022-10-03T04:21:51;8.73;;;4.13;;
50483;SDS011;36409;52.168;20.878;2022-10-03T04:27:59;11.07;;;5.23;;
50483;SDS011;36409;52.168;20.878;2022-10-03T04:30:44;9.80;;;5.73;;
50483;SDS011;36409;52.168;20.878;2022-10-03T04:33:27;10.00;;;7.17;;
50483;SDS011;36409;52.168;20.878;2022-10-03T04:39:08;16.00;;;7.27;;
50483;SDS011;36409;52.168;20.878;2022-10-03T04:41:44;12.37;;;7.43;;
50483;SDS011;36409;52.168;20.878;2022-10-03T04:44:24;15.17;;;7.10;;
50483;SDS011;36409;52.168;20.878;2022-10-03T04:47:05;13.37;;;7.67;;
50483;SDS011;36409;52.168;20.878;2022-10-03T04:49:37;13.30;;;7.27;;
50483;SDS011;36409;52.168;20.878;2022-10-03T04:52:14;13.53;;;7.17;;
50483;SDS011;36409;52.168;20.878;2022-10-03T04:54:51;13.40;;;7.60;;
50483;SDS011;36409;52.168;20.878;2022-10-03T04:57:30;11.10;;;5.47;;
50483;SDS011;36409;52.168;20.878;2022-10-03T05:00:20;13.00;;;6.70;;
50483;SDS011;36409;52.168;20.878;2022-10-03T05:02:54;11.50;;;6.63;;
50483;SDS011;36409;52.168;20.878;2022-10-03T05:05:37;10.87;;;5.47;;
50483;SDS011;36409;52.168;20.878;2022-10-03T05:08:21;12.37;;;5.70;;
50483;SDS011;36409;52.168;20.878;2022-10-03T05:11:03;10.30;;;5.42;;
50483;SDS011;36409;52.168;20.878;2022-10-03T05:13:41;9.70;;;4.87;;
50483;SDS011;36409;52.168;20.878;2022-10-03T05:16:19;7.30;;;4.53;;
50483;SDS011;36409;52.168;20.878;2022-10-03T05:19:01;12.57;;;5.13;;
50483;SDS011;36409;52.168;20.878;2022-10-03T05:21:46;13.57;;;5.50;;
50483;SDS011;36409;52.168;20.878;2022-10-03T05:24:25;11.17;;;5.10;;
50483;SDS011;36409;52.168;20.878;2022-10-03T05:27:06;9.20;;;5.13;;
50483;SDS011;36409;52.168;20.878;2022-10-03T05:29:42;11.40;;;5.70;;
50483;SDS011;36409;52.168;20.878;2022-10-03T05:32:22;11.90;;;5.60;;
50483;SDS011;36409;52.168;20.878;2022-10-03T05:35:15;10.17;;;5.43;;
50483;SDS011;36409;52.168;20.878;2022-10-03T05:38:04;11.60;;;4.90;;
50483;SDS011;36409;52.168;20.878;2022-10-03T05:41:01;9.27;;;4.87;;
50483;SDS011;36409;52.168;20.878;2022-10-03T05:43:41;8.77;;;4.80;;
50483;SDS011;36409;52.168;20.878;2022-10-03T05:46:20;11.85;;;5.10;;
50483;SDS011;36409;52.168;20.878;2022-10-03T05:49:09;9.37;;;4.53;;
50483;SDS011;36409;52.168;20.878;2022-10-03T05:52:12;10.83;;;4.50;;
50483;SDS011;36409;52.168;20.878;2022-10-03T05:55:04;13.20;;;5.23;;
50483;SDS011;36409;52.168;20.878;2022-10-03T05:58:05;9.23;;;4.40;;
50483;SDS011;36409;52.168;20.878;2022-10-03T06:01:05;9.45;;;4.50;;
50483;SDS011;36409;52.168;20.878;2022-10-03T06:04:04;8.53;;;4.00;;
50483;SDS011;36409;52.168;20.878;2022-10-03T06:06:52;10.97;;;5.10;;
50483;SDS011;36409;52.168;20.878;2022-10-03T06:12:54;9.57;;;4.10;;
50483;SDS011;36409;52.168;20.878;2022-10-03T06:15:37;11.70;;;4.00;;
50483;SDS011;36409;52.168;20.878;2022-10-03T06:18:22;11.30;;;4.27;;
50483;SDS011;36409;52.168;20.878;2022-10-03T06:21:15;10.97;;;3.93;;
50483;SDS011;36409;52.168;20.878;2022-10-03T06:24:04;7.50;;;3.87;;
50483;SDS011;36409;52.168;20.878;2022-10-03T06:30:11;7.90;;;4.07;;
50483;SDS011;36409;52.168;20.878;2022-10-03T06:36:24;7.77;;;4.13;;
50483;SDS011;36409;52.168;20.878;2022-10-03T06:54:44;7.90;;;3.60;;
50483;SDS011;36409;52.168;20.878;2022-10-03T07:00:42;9.07;;;3.60;;
50483;SDS011;36409;52.168;20.878;2022-10-03T07:03:25;8.37;;;3.23;;
50483;SDS011;36409;52.168;20.878;2022-10-03T07:06:10;9.57;;;3.27;;
50483;SDS011;36409;52.168;20.878;2022-10-03T07:12:49;10.97;;;3.67;;
50483;SDS011;36409;52.168;20.878;2022-10-03T07:15:55;6.47;;;3.13;;
50483;SDS011;36409;52.168;20.878;2022-10-03T07:28:35;8.63;;;3.07;;
50483;SDS011;36409;52.168;20.878;2022-10-03T07:31:39;6.60;;;2.47;;
50483;SDS011;36409;52.168;20.878;2022-10-03T07:37:42;5.37;;;2.70;;
50483;SDS011;36409;52.168;20.878;2022-10-03T07:41:25;8.33;;;2.97;;
50483;SDS011;36409;52.168;20.878;2022-10-03T07:47:31;7.23;;;3.00;;
50483;SDS011;36409;52.168;20.878;2022-10-03T07:53:29;7.13;;;2.83;;
50483;SDS011;36409;52.168;20.878;2022-10-03T07:56:34;6.67;;;2.80;;
50483;SDS011;36409;52.168;20.878;2022-10-03T08:02:27;7.87;;;2.70;;
50483;SDS011;36409;52.168;20.878;2022-10-03T08:05:21;4.83;;;2.33;;
50483;SDS011;36409;52.168;20.878;2022-10-03T08:08:16;5.33;;;2.43;;
50483;SDS011;36409;52.168;20.878;2022-10-03T08:11:21;4.83;;;2.53;;
50483;SDS011;36409;52.168;20.878;2022-10-03T08:14:16;6.23;;;2.50;;
50483;SDS011;36409;52.168;20.878;2022-10-03T08:16:50;5.50;;;2.50;;
50483;SDS011;36409;52.168;20.878;2022-10-03T08:19:42;5.43;;;2.40;;
50483;SDS011;36409;52.168;20.878;2022-10-03T08:22:38;5.17;;;2.10;;
50483;SDS011;36409;52.168;20.878;2022-10-03T08:25:21;4.30;;;2.40;;
50483;SDS011;36409;52.168;20.878;2022-10-03T08:28:07;5.27;;;2.40;;
50483;SDS011;36409;52.168;20.878;2022-10-03T08:30:56;6.40;;;2.65;;
50483;SDS011;36409;52.168;20.878;2022-10-03T08:33:51;5.43;;;2.27;;
50483;SDS011;36409;52.168;20.878;2022-10-03T08:48:42;6.93;;;2.77;;
50483;SDS011;36409;52.168;20.878;2022-10-03T08:51:37;5.97;;;2.90;;
50483;SDS011;36409;52.168;20.878;2022-10-03T08:54:22;8.00;;;2.63;;
50483;SDS011;36409;52.168;20.878;2022-10-03T08:57:29;4.40;;;2.30;;
50483;SDS011;36409;52.168;20.878;2022-10-03T09:00:21;6.10;;;2.60;;
50483;SDS011;36409;52.168;20.878;2022-10-03T09:09:02;4.00;;;2.67;;
50483;SDS011;36409;52.168;20.878;2022-10-03T09:15:09;5.47;;;3.03;;
50483;SDS011;36409;52.168;20.878;2022-10-03T09:17:56;6.07;;;2.93;;
50483;SDS011;36409;52.168;20.878;2022-10-03T09:27:26;6.37;;;3.47;;
50483;SDS011;36409;52.168;20.878;2022-10-03T09:30:26;10.45;;;3.37;;
50483;SDS011;36409;52.168;20.878;2022-10-03T09:33:21;9.80;;;3.40;;
50483;SDS011;36409;52.168;20.878;2022-10-03T09:39:38;7.20;;;3.13;;
50483;SDS011;36409;52.168;20.878;2022-10-03T09:42:41;7.47;;;3.87;;
50483;SDS011;36409;52.168;20.878;2022-10-03T09:51:40;6.30;;;3.53;;
50483;SDS011;36409;52.168;20.878;2022-10-03T09:54:21;7.30;;;3.27;;
50483;SDS011;36409;52.168;20.878;2022-10-03T10:00:17;7.60;;;3.30;;
50483;SDS011;36409;52.168;20.878;2022-10-03T10:03:06;7.50;;;3.20;;
50483;SDS011;36409;52.168;20.878;2022-10-03T10:06:03;7.50;;;3.85;;
50483;SDS011;36409;52.168;20.878;2022-10-03T10:09:11;6.60;;;3.70;;
50483;SDS011;36409;52.168;20.878;2022-10-03T10:15:28;7.37;;;3.70;;
50483;SDS011;36409;52.168;20.878;2022-10-03T10:18:34;6.20;;;3.60;;
50483;SDS011;36409;52.168;20.878;2022-10-03T10:21:27;5.80;;;3.33;;
50483;SDS011;36409;52.168;20.878;2022-10-03T10:24:18;5.97;;;3.17;;
50483;SDS011;36409;52.168;20.878;2022-10-03T10:30:46;5.97;;;3.83;;
50483;SDS011;36409;52.168;20.878;2022-10-03T10:39:49;5.23;;;3.63;;
50483;SDS011;36409;52.168;20.878;2022-10-03T10:42:55;5.23;;;3.17;;
50483;SDS011;36409;52.168;20.878;2022-10-03T10:52:19;4.70;;;2.30;;
50483;SDS011;36409;52.168;20.878;2022-10-03T10:55:24;4.00;;;1.80;;
50483;SDS011;36409;52.168;20.878;2022-10-03T11:04:58;4.77;;;2.07;;
50483;SDS011;36409;52.168;20.878;2022-10-03T11:14:19;7.53;;;2.03;;
50483;SDS011;36409;52.168;20.878;2022-10-03T11:17:23;2.67;;;1.30;;
50483;SDS011;36409;52.168;20.878;2022-10-03T11:23:23;1.87;;;1.00;;
50483;SDS011;36409;52.168;20.878;2022-10-03T11:29:41;3.93;;;1.30;;
50483;SDS011;36409;52.168;20.878;2022-10-03T11:32:39;2.67;;;1.20;;
50483;SDS011;36409;52.168;20.878;2022-10-03T11:35:32;2.37;;;1.07;;
50483;SDS011;36409;52.168;20.878;2022-10-03T11:38:38;3.50;;;1.57;;
50483;SDS011;36409;52.168;20.878;2022-10-03T11:41:18;4.57;;;1.20;;
50483;SDS011;36409;52.168;20.878;2022-10-03T11:46:53;2.37;;;1.30;;
50483;SDS011;36409;52.168;20.878;2022-10-03T11:49:52;7.23;;;1.40;;
50483;SDS011;36409;52.168;20.878;2022-10-03T11:52:48;3.03;;;1.23;;
50483;SDS011;36409;52.168;20.878;2022-10-03T11:55:36;5.00;;;1.60;;
50483;SDS011;36409;52.168;20.878;2022-10-03T11:58:22;5.23;;;1.53;;
50483;SDS011;36409;52.168;20.878;2022-10-03T12:01:05;3.63;;;1.50;;
50483;SDS011;36409;52.168;20.878;2022-10-03T12:03:52;2.33;;;1.13;;
50483;SDS011;36409;52.168;20.878;2022-10-03T12:06:45;3.27;;;1.70;;
50483;SDS011;36409;52.168;20.878;2022-10-03T12:09:46;3.50;;;1.20;;
50483;SDS011;36409;52.168;20.878;2022-10-03T12:12:38;3.53;;;1.30;;
50483;SDS011;36409;52.168;20.878;2022-10-03T12:15:20;3.98;;;1.10;;
50483;SDS011;36409;52.168;20.878;2022-10-03T12:18:00;4.40;;;1.10;;
50483;SDS011;36409;52.168;20.878;2022-10-03T12:20:38;2.57;;;1.30;;
50483;SDS011;36409;52.168;20.878;2022-10-03T12:23:24;2.70;;;1.37;;
50483;SDS011;36409;52.168;20.878;2022-10-03T12:26:05;3.65;;;1.45;;
50483;SDS011;36409;52.168;20.878;2022-10-03T12:28:42;4.07;;;1.77;;
50483;SDS011;36409;52.168;20.878;2022-10-03T12:31:17;3.80;;;1.50;;
50483;SDS011;36409;52.168;20.878;2022-10-03T12:33:53;3.33;;;1.20;;
50483;SDS011;36409;52.168;20.878;2022-10-03T12:36:30;3.83;;;1.30;;
50483;SDS011;36409;52.168;20.878;2022-10-03T12:39:16;3.00;;;1.10;;
50483;SDS011;36409;52.168;20.878;2022-10-03T12:42:01;4.90;;;1.27;;
50483;SDS011;36409;52.168;20.878;2022-10-03T12:44:44;2.60;;;1.20;;
50483;SDS011;36409;52.168;20.878;2022-10-03T12:47:23;5.50;;;1.30;;
50483;SDS011;36409;52.168;20.878;2022-10-03T12:50:23;3.80;;;1.30;;
50483;SDS011;36409;52.168;20.878;2022-10-03T12:56:12;2.67;;;1.30;;
50483;SDS011;36409;52.168;20.878;2022-10-03T12:58:52;2.57;;;1.20;;
50483;SDS011;36409;52.168;20.878;2022-10-03T13:01:33;3.27;;;1.20;;
50483;SDS011;36409;52.168;20.878;2022-10-03T13:04:21;5.57;;;1.37;;
50483;SDS011;36409;52.168;20.878;2022-10-03T13:07:12;2.17;;;1.23;;
50483;SDS011;36409;52.168;20.878;2022-10-03T13:12:49;5.67;;;1.80;;
50483;SDS011;36409;52.168;20.878;2022-10-03T13:18:30;2.57;;;0.90;;
50483;SDS011;36409;52.168;20.878;2022-10-03T13:21:20;3.60;;;1.30;;
50483;SDS011;36409;52.168;20.878;2022-10-03T13:24:16;4.40;;;1.53;;
50483;SDS011;36409;52.168;20.878;2022-10-03T13:26:55;4.87;;;1.80;;
50483;SDS011;36409;52.168;20.878;2022-10-03T13:29:37;8.03;;;1.57;;
50483;SDS011;36409;52.168;20.878;2022-10-03T13:32:15;4.17;;;1.30;;
50483;SDS011;36409;52.168;20.878;2022-10-03T13:34:58;3.63;;;1.60;;
50483;SDS011;36409;52.168;20.878;2022-10-03T13:38:04;2.10;;;1.07;;
50483;SDS011;36409;52.168;20.878;2022-10-03T13:40:44;4.87;;;1.33;;
50483;SDS011;36409;52.168;20.878;2022-10-03T13:43:21;4.47;;;1.50;;
50483;SDS011;36409;52.168;20.878;2022-10-03T13:45:56;3.77;;;1.10;;
50483;SDS011;36409;52.168;20.878;2022-10-03T16:13:41;4.45;;;2.10;;
50483;SDS011;36409;52.168;20.878;2022-10-03T16:16:26;7.37;;;2.40;;
50483;SDS011;36409;52.168;20.878;2022-10-03T16:19:19;6.17;;;2.03;;
50483;SDS011;36409;52.168;20.878;2022-10-03T16:22:14;5.78;;;2.50;;
50483;SDS011;36409;52.168;20.878;2022-10-03T16:46:55;10.93;;;3.67;;
50483;SDS011;36409;52.168;20.878;2022-10-03T16:52:20;8.63;;;3.70;;
50483;SDS011;36409;52.168;20.878;2022-10-03T16:55:01;7.43;;;3.83;;
50483;SDS011;36409;52.168;20.878;2022-10-03T16:57:37;8.57;;;3.93;;
50483;SDS011;36409;52.168;20.878;2022-10-03T17:00:15;6.57;;;3.67;;
50483;SDS011;36409;52.168;20.878;2022-10-03T17:02:47;8.00;;;4.00;;
50483;SDS011;36409;52.168;20.878;2022-10-03T17:05:17;6.50;;;3.13;;
50483;SDS011;36409;52.168;20.878;2022-10-03T17:07:47;7.23;;;3.40;;
50483;SDS011;36409;52.168;20.878;2022-10-03T17:10:28;8.37;;;4.20;;
50483;SDS011;36409;52.168;20.878;2022-10-03T17:13:05;9.97;;;3.70;;
50483;SDS011;36409;52.168;20.878;2022-10-03T17:15:51;11.03;;;4.17;;
50483;SDS011;36409;52.168;20.878;2022-10-03T17:18:27;7.73;;;3.90;;
50483;SDS011;36409;52.168;20.878;2022-10-03T17:21:02;6.70;;;3.15;;
50483;SDS011;36409;52.168;20.878;2022-10-03T17:23:46;6.67;;;3.53;;
50483;SDS011;36409;52.168;20.878;2022-10-03T17:26:23;6.80;;;3.33;;
50483;SDS011;36409;52.168;20.878;2022-10-03T17:28:55;6.93;;;3.83;;
50483;SDS011;36409;52.168;20.878;2022-10-03T17:31:37;8.27;;;3.97;;
50483;SDS011;36409;52.168;20.878;2022-10-03T17:34:12;10.67;;;4.20;;
50483;SDS011;36409;52.168;20.878;2022-10-03T17:36:55;10.40;;;4.13;;
50483;SDS011;36409;52.168;20.878;2022-10-03T17:42:29;7.50;;;3.70;;
50483;SDS011;36409;52.168;20.878;2022-10-03T17:45:16;5.53;;;2.70;;
50483;SDS011;36409;52.168;20.878;2022-10-03T17:48:03;7.17;;;3.40;;
50483;SDS011;36409;52.168;20.878;2022-10-03T17:50:39;7.27;;;3.10;;
50483;SDS011;36409;52.168;20.878;2022-10-03T17:53:20;8.40;;;3.40;;
50483;SDS011;36409;52.168;20.878;2022-10-03T17:55:53;9.23;;;3.47;;
50483;SDS011;36409;52.168;20.878;2022-10-03T17:58:26;7.13;;;3.27;;
50483;SDS011;36409;52.168;20.878;2022-10-03T18:01:00;8.33;;;3.27;;
50483;SDS011;36409;52.168;20.878;2022-10-03T18:03:39;7.83;;;3.30;;
50483;SDS011;36409;52.168;20.878;2022-10-03T18:09:18;10.83;;;3.17;;
50483;SDS011;36409;52.168;20.878;2022-10-03T18:14:29;5.67;;;2.80;;
50483;SDS011;36409;52.168;20.878;2022-10-03T18:17:10;7.70;;;3.00;;
50483;SDS011;36409;52.168;20.878;2022-10-03T18:19:50;5.83;;;3.17;;
50483;SDS011;36409;52.168;20.878;2022-10-03T18:22:29;10.20;;;3.07;;
50483;SDS011;36409;52.168;20.878;2022-10-03T18:25:11;6.90;;;3.30;;
50483;SDS011;36409;52.168;20.878;2022-10-03T18:28:06;9.03;;;2.97;;
50483;SDS011;36409;52.168;20.878;2022-10-03T18:30:44;6.53;;;2.60;;
50483;SDS011;36409;52.168;20.878;2022-10-03T18:33:20;6.10;;;2.50;;
50483;SDS011;36409;52.168;20.878;2022-10-03T18:35:55;4.87;;;2.27;;
50483;SDS011;36409;52.168;20.878;2022-10-03T18:38:26;8.57;;;4.00;;
50483;SDS011;36409;52.168;20.878;2022-10-03T18:40:58;6.67;;;3.60;;
50483;SDS011;36409;52.168;20.878;2022-10-03T18:43:30;9.13;;;4.27;;
50483;SDS011;36409;52.168;20.878;2022-10-03T18:46:04;10.47;;;4.07;;
50483;SDS011;36409;52.168;20.878;2022-10-03T18:48:44;8.93;;;4.27;;
50483;SDS011;36409;52.168;20.878;2022-10-03T18:51:43;8.00;;;4.00;;
50483;SDS011;36409;52.168;20.878;2022-10-03T18:54:23;12.17;;;4.37;;
50483;SDS011;36409;52.168;20.878;2022-10-03T18:57:03;8.53;;;4.80;;
50483;SDS011;36409;52.168;20.878;2022-10-03T19:02:14;8.60;;;4.07;;
50483;SDS011;36409;52.168;20.878;2022-10-03T19:04:49;9.23;;;4.77;;
50483;SDS011;36409;52.168;20.878;2022-10-03T19:07:24;10.37;;;4.90;;
50483;SDS011;36409;52.168;20.878;2022-10-03T19:13:06;9.63;;;5.27;;
50483;SDS011;36409;52.168;20.878;2022-10-03T19:15:50;8.37;;;4.77;;
50483;SDS011;36409;52.168;20.878;2022-10-03T19:18:34;11.83;;;5.03;;
50483;SDS011;36409;52.168;20.878;2022-10-03T19:21:11;8.50;;;5.00;;
50483;SDS011;36409;52.168;20.878;2022-10-03T19:23:46;8.70;;;4.57;;
50483;SDS011;36409;52.168;20.878;2022-10-03T19:26:20;8.43;;;4.58;;
50483;SDS011;36409;52.168;20.878;2022-10-03T19:28:54;10.20;;;5.60;;
50483;SDS011;36409;52.168;20.878;2022-10-03T19:31:28;12.00;;;6.00;;
50483;SDS011;36409;52.168;20.878;2022-10-03T19:34:03;9.00;;;4.83;;
50483;SDS011;36409;52.168;20.878;2022-10-03T19:36:49;8.63;;;5.17;;
50483;SDS011;36409;52.168;20.878;2022-10-03T19:39:24;16.77;;;5.80;;
50483;SDS011;36409;52.168;20.878;2022-10-03T19:41:59;13.63;;;6.20;;
50483;SDS011;36409;52.168;20.878;2022-10-03T19:44:57;10.47;;;5.70;;
50483;SDS011;36409;52.168;20.878;2022-10-03T19:47:28;10.57;;;5.77;;
50483;SDS011;36409;52.168;20.878;2022-10-03T19:50:02;9.93;;;5.30;;
50483;SDS011;36409;52.168;20.878;2022-10-03T19:52:37;10.47;;;6.27;;
50483;SDS011;36409;52.168;20.878;2022-10-03T19:55:11;15.77;;;6.43;;
50483;SDS011;36409;52.168;20.878;2022-10-03T19:57:46;12.73;;;5.80;;
50483;SDS011;36409;52.168;20.878;2022-10-03T20:00:26;9.63;;;5.90;;
50483;SDS011;36409;52.168;20.878;2022-10-03T20:03:04;12.63;;;6.07;;
50483;SDS011;36409;52.168;20.878;2022-10-03T20:05:42;17.47;;;6.87;;
50483;SDS011;36409;52.168;20.878;2022-10-03T20:08:22;10.47;;;6.03;;
50483;SDS011;36409;52.168;20.878;2022-10-03T20:10:57;11.45;;;6.67;;
50483;SDS011;36409;52.168;20.878;2022-10-03T20:13:33;15.80;;;7.63;;
50483;SDS011;36409;52.168;20.878;2022-10-03T20:16:08;13.23;;;6.93;;
50483;SDS011;36409;52.168;20.878;2022-10-03T20:21:11;15.93;;;8.13;;
50483;SDS011;36409;52.168;20.878;2022-10-03T20:23:51;9.90;;;5.77;;
50483;SDS011;36409;52.168;20.878;2022-10-03T20:26:23;11.90;;;6.87;;
50483;SDS011;36409;52.168;20.878;2022-10-03T20:29:01;9.90;;;6.80;;
50483;SDS011;36409;52.168;20.878;2022-10-03T20:31:48;9.73;;;6.23;;
50483;SDS011;36409;52.168;20.878;2022-10-03T20:34:20;12.57;;;6.47;;
50483;SDS011;36409;52.168;20.878;2022-10-03T20:36:55;11.07;;;6.63;;
50483;SDS011;36409;52.168;20.878;2022-10-03T20:39:38;15.73;;;6.90;;
50483;SDS011;36409;52.168;20.878;2022-10-03T20:42:15;8.27;;;5.83;;
50483;SDS011;36409;52.168;20.878;2022-10-03T20:44:54;15.37;;;8.13;;
50483;SDS011;36409;52.168;20.878;2022-10-03T20:47:38;9.87;;;6.60;;
50483;SDS011;36409;52.168;20.878;2022-10-03T20:50:16;11.20;;;7.80;;
50483;SDS011;36409;52.168;20.878;2022-10-03T20:52:50;13.10;;;8.05;;
50483;SDS011;36409;52.168;20.878;2022-10-03T20:55:22;14.47;;;8.37;;
50483;SDS011;36409;52.168;20.878;2022-10-03T21:00:29;15.25;;;8.10;;
50483;SDS011;36409;52.168;20.878;2022-10-03T21:03:00;12.30;;;7.95;;
50483;SDS011;36409;52.168;20.878;2022-10-03T21:05:34;12.60;;;7.80;;
50483;SDS011;36409;52.168;20.878;2022-10-03T21:08:09;13.50;;;8.77;;
50483;SDS011;36409;52.168;20.878;2022-10-03T21:10:47;12.50;;;8.60;;
50483;SDS011;36409;52.168;20.878;2022-10-03T21:13:21;14.10;;;8.33;;
50483;SDS011;36409;52.168;20.878;2022-10-03T21:15:57;14.13;;;9.53;;
50483;SDS011;36409;52.168;20.878;2022-10-03T21:18:30;15.10;;;9.03;;
50483;SDS011;36409;52.168;20.878;2022-10-03T21:21:04;19.20;;;10.47;;
50483;SDS011;36409;52.168;20.878;2022-10-03T21:23:40;13.73;;;8.40;;
50483;SDS011;36409;52.168;20.878;2022-10-03T21:26:19;13.00;;;8.43;;
50483;SDS011;36409;52.168;20.878;2022-10-03T21:28:50;13.97;;;8.20;;
50483;SDS011;36409;52.168;20.878;2022-10-03T21:31:56;12.27;;;8.63;;
50483;SDS011;36409;52.168;20.878;2022-10-03T21:34:47;13.37;;;8.77;;
50483;SDS011;36409;52.168;20.878;2022-10-03T21:37:28;12.03;;;8.07;;
50483;SDS011;36409;52.168;20.878;2022-10-03T21:40:12;11.47;;;8.10;;
50483;SDS011;36409;52.168;20.878;2022-10-03T21:42:52;20.43;;;8.43;;
50483;SDS011;36409;52.168;20.878;2022-10-03T21:45:31;10.93;;;7.67;;
50483;SDS011;36409;52.168;20.878;2022-10-03T21:48:11;12.83;;;8.77;;
50483;SDS011;36409;52.168;20.878;2022-10-03T21:50:52;15.60;;;9.00;;
50483;SDS011;36409;52.168;20.878;2022-10-03T21:53:26;13.05;;;8.68;;
50483;SDS011;36409;52.168;20.878;2022-10-03T21:56:10;13.67;;;8.20;;
50483;SDS011;36409;52.168;20.878;2022-10-03T21:59:02;14.07;;;8.73;;
50483;SDS011;36409;52.168;20.878;2022-10-03T22:01:45;11.70;;;7.63;;
50483;SDS011;36409;52.168;20.878;2022-10-03T22:04:22;12.00;;;7.80;;
50483;SDS011;36409;52.168;20.878;2022-10-03T22:07:01;10.37;;;7.13;;
50483;SDS011;36409;52.168;20.878;2022-10-03T22:09:42;10.73;;;7.97;;
50483;SDS011;36409;52.168;20.878;2022-10-03T22:12:12;12.73;;;8.23;;
50483;SDS011;36409;52.168;20.878;2022-10-03T22:14:43;13.03;;;7.87;;
50483;SDS011;36409;52.168;20.878;2022-10-03T22:17:21;11.67;;;7.80;;
50483;SDS011;36409;52.168;20.878;2022-10-03T22:19:58;14.57;;;8.00;;
50483;SDS011;36409;52.168;20.878;2022-10-03T22:22:52;11.90;;;6.72;;
50483;SDS011;36409;52.168;20.878;2022-10-03T22:28:35;11.67;;;8.03;;
50483;SDS011;36409;52.168;20.878;2022-10-03T22:31:18;11.43;;;7.40;;